Pencader, United Kingdom
Current Conditions -  °F | °C
As of 4:50 AM on Thursday 18 Dec 2014 (Local Time) from EGOP Reporting Station
Broken Clouds Broken Clouds  
Wind Chill: 54°   Ceiling: 600
Heat Index: 54°   Visibility: 2.8mi
Dew Point: 52°   Wind: 30mph
Humidity: 94%   Direction: 250°WSW
Pressure: 29.83"   Gusts: NA
Location:  52°N, 4.26°W
Report Text: EGOP 180450Z AUTO 25026KT 4600 // BKN006/// 12/11 Q1010
Loading
Personal Weather Stations






























Interactive Weather Map New forecast layout! Learn more

10-Day Weather Forecast

Advertisements
Track Severe Weather on mobile